Time;durP1;ratioP1;P1;durP2;ratioP2;P2;SDS_P1;SDS_P2;PMS_P1;PMS_P2;Temp;Humidity;BMP_temperature;BMP_pressure;BME280_temperature;BME280_humidity;BME280_pressure;Samples;Min_cycle;Max_cycle;Signal;HPM_P1;HPM_P2
2022/03/19 00:01:52;;;;;;;12.50;6.70;;;;;;;-4.55;95.95;103434.84;1822635;79;21464;-62
2022/03/19 00:04:19;;;;;;;13.97;6.97;;;;;;;-4.56;95.69;103433.08;1822424;79;21038;-61
2022/03/19 00:06:47;;;;;;;12.80;7.00;;;;;;;-4.57;95.52;103429.70;1822625;79;21086;-62
2022/03/19 00:09:14;;;;;;;15.10;7.10;;;;;;;-4.59;95.62;103430.38;1822293;79;21043;-63
2022/03/19 00:11:44;;;;;;;14.23;6.93;;;;;;;-4.58;95.98;103417.02;1820335;78;21078;-62
2022/03/19 00:14:12;;;;;;;17.37;7.27;;;;;;;-4.61;96.55;103416.84;1821027;79;21030;-62
2022/03/19 00:16:39;;;;;;;15.63;8.00;;;;;;;-4.63;96.82;103417.99;1820550;79;21103;-62
2022/03/19 00:19:08;;;;;;;15.40;7.57;;;;;;;-4.64;97.15;103418.38;1820853;79;21027;-61
2022/03/19 00:21:37;;;;;;;14.47;7.30;;;;;;;-4.58;97.43;103413.25;1820577;79;21118;-61
2022/03/19 00:24:07;;;;;;;15.57;7.30;;;;;;;-4.61;97.74;103420.22;1820920;79;21492;-61
2022/03/19 00:26:35;;;;;;;15.17;7.27;;;;;;;-4.59;98.06;103416.56;1820785;79;21093;-61
2022/03/19 00:29:05;;;;;;;14.17;7.53;;;;;;;-4.63;98.43;103416.34;1820400;79;21535;-61
2022/03/19 00:31:33;;;;;;;15.10;7.97;;;;;;;-4.65;99.02;103417.02;1820739;79;21063;-61
2022/03/19 00:34:00;;;;;;;14.97;7.47;;;;;;;-4.70;99.61;103415.47;1820639;79;21550;-61
2022/03/19 00:36:28;;;;;;;17.27;7.80;;;;;;;-4.72;99.99;103415.76;1820741;79;21015;-61
2022/03/19 00:38:56;;;;;;;14.97;7.57;;;;;;;-4.77;100.00;103415.83;1820554;79;21066;-61
2022/03/19 00:41:23;;;;;;;17.00;8.20;;;;;;;-4.76;100.00;103411.30;1820741;79;21038;-61
2022/03/19 00:43:51;;;;;;;14.47;7.83;;;;;;;-4.77;100.00;103406.17;1820543;79;21079;-62
2022/03/19 00:46:20;;;;;;;15.13;8.07;;;;;;;-4.79;100.00;103403.55;1820621;79;21567;-61
2022/03/19 00:48:48;;;;;;;17.00;7.80;;;;;;;-4.84;100.00;103402.39;1821014;79;20980;-61
2022/03/19 00:51:15;;;;;;;15.17;8.30;;;;;;;-4.83;100.00;103397.44;1820445;79;21105;-62
2022/03/19 00:53:42;;;;;;;15.17;7.87;;;;;;;-4.82;100.00;103394.57;1820782;79;21031;-61
2022/03/19 00:56:11;;;;;;;17.57;8.50;;;;;;;-4.88;100.00;103397.54;1820558;79;21054;-61
2022/03/19 00:58:37;;;;;;;15.80;8.97;;;;;;;-4.89;100.00;103395.78;1820826;79;21043;-62
2022/03/19 01:01:06;;;;;;;16.57;8.67;;;;;;;-4.88;100.00;103386.63;1820506;79;20995;-62
2022/03/19 01:03:35;;;;;;;20.17;9.90;;;;;;;-4.85;100.00;103383.05;1820512;79;21566;-61
2022/03/19 01:06:03;;;;;;;19.17;9.80;;;;;;;-4.85;100.00;103382.66;1820773;79;21016;-62
2022/03/19 01:08:31;;;;;;;24.43;10.23;;;;;;;-4.83;100.00;103384.88;1797773;79;21007;-61
2022/03/19 01:11:00;;;;;;;20.67;10.33;;;;;;;-4.78;100.00;103383.95;1821644;79;21039;-61
2022/03/19 01:13:28;;;;;;;21.90;11.03;;;;;;;-4.74;100.00;103388.40;1823076;79;21006;-62
2022/03/19 01:15:58;;;;;;;23.97;10.20;;;;;;;-4.75;100.00;103388.30;1823082;79;21524;-62
2022/03/19 01:18:26;;;;;;;24.90;10.47;;;;;;;-4.74;100.00;103385.89;1822848;79;21015;-62
2022/03/19 01:20:55;;;;;;;23.63;10.20;;;;;;;-4.76;100.00;103382.80;1823078;79;21070;-62
2022/03/19 01:23:22;;;;;;;21.33;10.27;;;;;;;-4.81;100.00;103393.78;1822730;79;21054;-62
2022/03/19 01:25:49;;;;;;;20.27;10.17;;;;;;;-4.81;100.00;103394.17;1822665;79;21109;-62
2022/03/19 01:28:16;;;;;;;18.30;10.20;;;;;;;-4.80;100.00;103390.91;1822998;79;21015;-62
2022/03/19 01:30:43;;;;;;;20.80;10.67;;;;;;;-4.82;100.00;103392.05;1822880;79;21495;-62
2022/03/19 01:33:10;;;;;;;19.40;9.60;;;;;;;-4.82;100.00;103392.05;1797825;79;21554;-62
2022/03/19 01:35:38;;;;;;;18.80;10.20;;;;;;;-4.85;100.00;103385.16;1822815;79;21050;-62
2022/03/19 01:38:05;;;;;;;20.60;9.97;;;;;;;-4.84;100.00;103388.57;1822776;79;21046;-63
2022/03/19 01:40:33;;;;;;;19.20;9.97;;;;;;;-4.89;100.00;103391.16;1822683;79;20984;-62
2022/03/19 01:43:01;;;;;;;17.80;9.37;;;;;;;-4.87;100.00;103390.87;1822777;79;21074;-62
2022/03/19 01:45:29;;;;;;;17.63;9.43;;;;;;;-4.87;100.00;103392.13;1798101;79;21496;-63
2022/03/19 01:47:57;;;;;;;18.17;9.93;;;;;;;-4.90;100.00;103389.42;1822702;79;21082;-62
2022/03/19 01:50:26;;;;;;;20.47;10.20;;;;;;;-4.94;100.00;103394.62;1822810;79;21023;-62
2022/03/19 01:52:55;;;;;;;20.43;10.43;;;;;;;-4.97;100.00;103397.31;1822907;79;21456;-62
2022/03/19 01:55:27;;;;;;;20.37;9.97;;;;;;;-4.99;100.00;103400.11;1822965;79;20983;-62
2022/03/19 01:57:58;;;;;;;18.57;9.70;;;;;;;-5.02;100.00;103397.02;1822831;79;21050;-62
2022/03/19 02:00:25;;;;;;;21.67;10.10;;;;;;;-5.01;100.00;103399.14;1823267;79;21495;-62
2022/03/19 02:02:54;;;;;;;22.93;10.37;;;;;;;-5.02;100.00;103394.90;1822641;79;21015;-62
2022/03/19 02:05:24;;;;;;;22.17;9.83;;;;;;;-5.03;100.00;103396.52;1822786;79;21058;-62
2022/03/19 02:07:52;;;;;;;21.43;10.10;;;;;;;-5.02;100.00;103398.67;1823018;79;21459;-62
2022/03/19 02:10:22;;;;;;;19.93;10.20;;;;;;;-5.01;100.00;103401.26;1822481;78;21067;-62
2022/03/19 02:12:53;;;;;;;23.67;10.33;;;;;;;-5.04;100.00;103395.66;1822586;79;21015;-62
2022/03/19 02:15:20;;;;;;;17.33;9.23;;;;;;;-5.06;100.00;103395.94;1822719;79;21065;-62
2022/03/19 02:17:49;;;;;;;20.33;10.40;;;;;;;-5.04;100.00;103400.67;1822477;79;21074;-62
2022/03/19 02:20:19;;;;;;;18.20;9.07;;;;;;;-5.09;100.00;103402.39;1822377;79;21031;-63
2022/03/19 02:25:35;;;;;;;20.73;10.33;;;;;;;-5.09;100.00;103398.63;1822371;79;21019;-62
2022/03/19 02:28:03;;;;;;;19.40;10.30;;;;;;;-5.16;100.00;103393.97;1822462;79;21078;-62
2022/03/19 02:30:34;;;;;;;22.13;10.10;;;;;;;-5.16;100.00;103392.33;1822337;78;21063;-62
2022/03/19 02:33:02;;;;;;;21.77;10.33;;;;;;;-5.16;100.00;103398.61;1822587;79;21014;-61
2022/03/19 02:35:29;;;;;;;19.80;9.70;;;;;;;-5.16;100.00;103401.12;1822619;79;21012;-61
2022/03/19 02:37:56;;;;;;;21.30;10.57;;;;;;;-5.18;100.00;103403.05;1822639;79;21515;-62
2022/03/19 02:40:23;;;;;;;21.93;10.67;;;;;;;-5.21;100.00;103406.59;1822934;79;21472;-62
2022/03/19 02:42:53;;;;;;;21.77;10.93;;;;;;;-5.26;100.00;103407.16;1822565;79;21562;-62
2022/03/19 02:45:22;;;;;;;18.80;10.73;;;;;;;-5.31;100.00;103402.58;1822728;79;21491;-62
2022/03/19 02:47:57;;;;;;;21.23;10.27;;;;;;;-5.38;100.00;103400.05;1822758;79;21015;-62
2022/03/19 02:50:33;;;;;;;23.53;10.53;;;;;;;-5.33;100.00;103401.61;1822397;79;20991;-62
2022/03/19 02:53:05;;;;;;;22.10;10.07;;;;;;;-5.33;100.00;103401.61;1822784;78;21034;-62
2022/03/19 02:55:37;;;;;;;18.80;9.33;;;;;;;-5.37;100.00;103399.66;1822735;79;21518;-62
2022/03/19 02:58:06;;;;;;;17.63;9.83;;;;;;;-5.39;100.00;103407.47;1794775;79;20968;-62
2022/03/19 03:00:36;;;;;;;20.47;10.73;;;;;;;-5.41;100.00;103405.23;1822597;78;20976;-62
2022/03/19 03:03:08;;;;;;;18.33;9.93;;;;;;;-5.45;100.00;103409.20;1822654;79;21018;-62
2022/03/19 03:05:35;;;;;;;21.43;10.10;;;;;;;-5.51;100.00;103414.67;1794830;79;20991;-62
2022/03/19 03:08:03;;;;;;;17.23;9.47;;;;;;;-5.55;100.00;103413.11;1822544;79;21090;-63
2022/03/19 03:10:32;;;;;;;24.33;10.30;;;;;;;-5.63;100.00;103418.84;1822486;79;21019;-62
2022/03/19 03:13:01;;;;;;;19.17;9.93;;;;;;;-5.71;100.00;103421.20;1822661;79;20979;-62
2022/03/19 03:15:28;;;;;;;19.77;9.93;;;;;;;-5.80;100.00;103423.92;1823006;79;21027;-62
2022/03/19 03:17:56;;;;;;;20.43;9.47;;;;;;;-5.86;100.00;103424.39;1822816;79;21062;-62
2022/03/19 03:20:24;;;;;;;20.47;9.97;;;;;;;-5.95;100.00;103426.27;1822837;79;21023;-63
2022/03/19 03:22:52;;;;;;;19.97;9.77;;;;;;;-6.00;100.00;103425.09;1822931;79;21520;-62
2022/03/19 03:25:19;;;;;;;18.40;9.10;;;;;;;-6.05;100.00;103422.23;1822729;79;21094;-62
2022/03/19 03:27:46;;;;;;;18.43;9.50;;;;;;;-6.07;100.00;103423.77;1822589;79;20991;-61
2022/03/19 03:30:13;;;;;;;17.20;9.20;;;;;;;-6.01;100.00;103422.08;1822639;79;20999;-61
2022/03/19 03:32:40;;;;;;;20.03;9.10;;;;;;;-6.02;100.00;103424.11;1822977;79;21035;-61
2022/03/19 03:35:09;;;;;;;19.77;8.57;;;;;;;-6.06;100.00;103420.90;1822731;79;21035;-61
2022/03/19 03:37:37;;;;;;;22.37;8.87;;;;;;;-6.01;100.00;103423.33;1822909;79;21058;-61
2022/03/19 03:40:07;;;;;;;18.80;8.60;;;;;;;-5.99;100.00;103435.59;1822725;79;21039;-62
2022/03/19 03:42:41;;;;;;;18.20;9.03;;;;;;;-6.02;100.00;103439.16;1822881;79;21011;-61
2022/03/19 03:45:10;;;;;;;17.73;8.73;;;;;;;-6.04;100.00;103441.94;1798827;79;21066;-61
2022/03/19 03:47:38;;;;;;;18.07;7.97;;;;;;;-6.08;100.00;103434.97;1822648;79;21618;-61
2022/03/19 03:50:08;;;;;;;16.27;9.07;;;;;;;-6.10;100.00;103433.59;1822981;79;20991;-61
2022/03/19 03:52:38;;;;;;;16.80;8.57;;;;;;;-6.12;100.00;103438.02;1822847;79;21054;-61
2022/03/19 03:55:08;;;;;;;16.97;8.80;;;;;;;-6.02;100.00;103439.16;1823024;79;21062;-61
2022/03/19 03:57:36;;;;;;;16.90;8.60;;;;;;;-5.93;100.00;103448.54;1823241;79;20976;-61
2022/03/19 04:00:08;;;;;;;18.90;7.97;;;;;;;-5.84;100.00;103449.20;1798122;79;20992;-61
2022/03/19 04:02:43;;;;;;;18.97;9.57;;;;;;;-5.81;100.00;103448.54;1823077;79;20999;-61
2022/03/19 04:05:11;;;;;;;17.37;8.87;;;;;;;-5.76;100.00;103447.59;1822757;79;20983;-61
2022/03/19 04:07:39;;;;;;;15.70;8.87;;;;;;;-5.72;100.00;103448.30;1823086;79;21059;-61
2022/03/19 04:10:07;;;;;;;17.60;8.80;;;;;;;-5.69;100.00;103440.61;1822737;79;21019;-61
2022/03/19 04:12:36;;;;;;;17.60;8.93;;;;;;;-5.65;100.00;103449.23;1822480;79;21047;-61
2022/03/19 04:15:07;;;;;;;19.87;8.47;;;;;;;-5.59;100.00;103445.90;1822849;79;21015;-60
2022/03/19 04:17:35;;;;;;;16.73;9.03;;;;;;;-5.53;100.00;103447.58;1822748;79;21027;-61
2022/03/19 04:20:05;;;;;;;16.97;8.53;;;;;;;-5.54;100.00;103454.98;1822813;79;21015;-62
2022/03/19 04:22:41;;;;;;;18.90;9.23;;;;;;;-5.50;100.00;103455.30;1795338;79;21014;-61
2022/03/19 04:25:22;;;;;;;23.70;9.90;;;;;;;-5.46;100.00;103458.52;1822490;79;21019;-61
2022/03/19 04:27:55;;;;;;;17.43;9.17;;;;;;;-5.39;100.00;103457.68;1822492;79;21061;-61
2022/03/19 04:30:25;;;;;;;16.40;9.03;;;;;;;-5.30;100.00;103457.94;1822475;79;21057;-61
2022/03/19 04:32:57;;;;;;;18.47;9.73;;;;;;;-5.27;100.00;103464.80;1822837;79;21122;-61
2022/03/19 04:38:17;;;;;;;18.00;9.60;;;;;;;-5.26;100.00;103471.58;1799824;79;21358;-61
2022/03/19 04:40:47;;;;;;;19.67;9.67;;;;;;;-5.25;100.00;103477.97;1822558;79;21070;-61
2022/03/19 04:43:14;;;;;;;18.63;9.80;;;;;;;-5.21;100.00;103480.31;1822957;79;20999;-60
2022/03/19 04:45:42;;;;;;;18.97;9.80;;;;;;;-5.17;100.00;103488.55;1822466;79;21027;-61
2022/03/19 04:48:10;;;;;;;20.20;10.20;;;;;;;-5.16;100.00;103482.73;1822570;79;21141;-61
2022/03/19 04:50:42;;;;;;;22.07;9.63;;;;;;;-5.11;100.00;103487.70;1822473;79;21058;-61
2022/03/19 04:53:10;;;;;;;19.67;9.53;;;;;;;-5.08;100.00;103491.66;1822719;79;21016;-61
2022/03/19 04:55:40;;;;;;;17.93;9.33;;;;;;;-5.01;100.00;103489.56;1822908;79;21079;-61
2022/03/19 04:58:09;;;;;;;21.30;9.73;;;;;;;-4.98;100.00;103486.89;1822615;79;21091;-61
2022/03/19 05:00:39;;;;;;;18.60;9.17;;;;;;;-4.88;100.00;103489.64;1822626;79;21539;-61
2022/03/19 05:03:09;;;;;;;19.30;9.53;;;;;;;-4.75;100.00;103489.67;1822348;79;21496;-61
2022/03/19 05:05:38;;;;;;;19.30;9.27;;;;;;;-4.64;100.00;103497.95;1822389;79;21062;-61
2022/03/19 05:08:06;;;;;;;18.53;9.10;;;;;;;-4.57;100.00;103499.23;1822750;79;21507;-61
2022/03/19 05:13:18;;;;;;;16.73;8.40;;;;;;;-4.48;100.00;103505.73;1822401;79;21059;-61
2022/03/19 05:15:46;;;;;;;17.70;9.23;;;;;;;-4.43;100.00;103503.52;1822569;79;21019;-61
2022/03/19 05:18:15;;;;;;;19.33;9.30;;;;;;;-4.31;99.25;103510.61;1822804;79;21074;-61
2022/03/19 05:20:43;;;;;;;20.57;9.37;;;;;;;-4.25;98.74;103505.97;1822463;79;21543;-61
2022/03/19 05:23:12;;;;;;;20.50;9.17;;;;;;;-4.17;97.49;103509.39;1822712;79;21129;-60
2022/03/19 05:25:41;;;;;;;19.07;9.07;;;;;;;-4.27;96.52;103506.27;1822559;79;20991;-61
2022/03/19 05:28:09;;;;;;;18.03;9.53;;;;;;;-4.28;96.67;103511.19;1822392;79;21015;-61
2022/03/19 05:30:38;;;;;;;19.07;8.97;;;;;;;-4.23;96.37;103513.63;1822733;79;21004;-62
2022/03/19 05:33:07;;;;;;;17.80;9.27;;;;;;;-4.11;96.55;103516.94;1822442;79;21048;-62
2022/03/19 05:35:35;;;;;;;19.00;8.70;;;;;;;-4.12;95.99;103510.15;1795267;79;21035;-61
2022/03/19 05:38:08;;;;;;;19.77;9.10;;;;;;;-4.03;95.86;103514.92;1822613;79;21031;-62
2022/03/19 05:40:37;;;;;;;17.43;9.20;;;;;;;-3.86;96.27;103510.95;1822600;79;21093;-61
2022/03/19 05:43:04;;;;;;;18.67;9.60;;;;;;;-3.87;95.12;103515.52;1822771;79;20999;-61
2022/03/19 05:45:31;;;;;;;17.13;9.10;;;;;;;-3.84;94.88;103511.92;1822526;79;20991;-61
2022/03/19 05:47:59;;;;;;;17.33;9.13;;;;;;;-3.72;94.95;103510.58;1822507;79;21559;-61
2022/03/19 05:50:28;;;;;;;17.43;10.30;;;;;;;-3.58;94.68;103511.05;1822620;79;21597;-60
2022/03/19 05:52:57;;;;;;;17.20;9.57;;;;;;;-3.53;93.54;103514.71;1822418;79;21531;-61
2022/03/19 05:55:24;;;;;;;15.17;9.17;;;;;;;-3.52;92.92;103517.73;1822411;79;21078;-61
2022/03/19 05:57:52;;;;;;;16.27;9.20;;;;;;;-3.48;92.12;103523.44;1822365;79;21546;-61
2022/03/19 06:00:19;;;;;;;18.23;9.53;;;;;;;-3.49;91.00;103524.23;1822471;79;21538;-61
2022/03/19 06:02:47;;;;;;;16.97;8.57;;;;;;;-3.51;90.00;103519.45;1822707;79;21035;-61
2022/03/19 06:05:14;;;;;;;15.20;8.70;;;;;;;-3.47;89.73;103536.89;1822484;79;21074;-61
2022/03/19 06:07:42;;;;;;;17.20;9.83;;;;;;;-3.41;88.74;103527.20;1822703;79;21488;-60
2022/03/19 06:10:11;;;;;;;18.57;8.37;;;;;;;-3.37;88.86;103524.48;1822766;78;21521;-62
2022/03/19 06:12:40;;;;;;;18.40;8.93;;;;;;;-3.30;87.50;103527.89;1810407;78;21011;-61
2022/03/19 06:15:09;;;;;;;17.93;8.77;;;;;;;-3.07;87.14;103525.50;1805949;78;21110;-61
2022/03/19 06:17:37;;;;;;;15.10;8.27;;;;;;;-3.07;86.96;103516.68;1762560;81;21546;-62
2022/03/19 06:20:07;;;;;;;17.10;8.83;;;;;;;-2.95;86.45;103519.94;1762808;81;21012;-61
2022/03/19 06:22:34;;;;;;;18.93;8.43;;;;;;;-2.93;85.48;103520.03;1762813;81;21046;-60
2022/03/19 06:25:03;;;;;;;15.43;7.90;;;;;;;-2.75;85.05;103518.61;1762541;81;21621;-60
2022/03/19 06:27:31;;;;;;;14.53;8.67;;;;;;;-2.63;84.59;103525.63;1762680;81;21035;-61
2022/03/19 06:29:59;;;;;;;18.17;9.20;;;;;;;-2.71;83.01;103527.23;1762581;81;21083;-61
2022/03/19 06:32:27;;;;;;;19.20;9.23;;;;;;;-2.70;82.71;103525.17;1756327;81;21007;-62
2022/03/19 06:34:54;;;;;;;18.57;9.63;;;;;;;-2.53;83.24;103525.78;1799543;79;21000;-61
2022/03/19 06:37:21;;;;;;;20.27;9.50;;;;;;;-2.45;82.69;103522.45;1806438;79;21107;-61
2022/03/19 06:39:54;;;;;;;18.10;9.30;;;;;;;-2.43;82.17;103517.97;1802614;79;21001;-61
2022/03/19 06:42:21;;;;;;;18.23;9.77;;;;;;;-2.27;82.48;103511.27;1796838;79;20962;-61
2022/03/19 06:44:48;;;;;;;18.83;9.30;;;;;;;-2.21;82.21;103510.35;1802710;79;20996;-61
2022/03/19 06:47:16;;;;;;;17.93;9.37;;;;;;;-2.17;80.49;103505.99;1801506;79;21113;-61
2022/03/19 06:49:43;;;;;;;21.50;10.33;;;;;;;-2.00;79.87;103501.02;1799323;79;21021;-61
2022/03/19 06:52:10;;;;;;;20.30;9.93;;;;;;;-1.88;79.35;103502.56;1796454;79;21027;-61
2022/03/19 06:54:39;;;;;;;18.23;9.90;;;;;;;-1.77;78.51;103502.28;1799763;79;20979;-62
2022/03/19 06:57:06;;;;;;;15.03;9.20;;;;;;;-1.70;78.04;103507.76;1805611;79;21011;-61
2022/03/19 06:59:33;;;;;;;19.50;10.33;;;;;;;-1.57;77.83;103504.64;1775458;79;21004;-61
2022/03/19 07:02:04;;;;;;;19.60;9.67;;;;;;;-1.65;76.77;103501.69;1771671;79;20996;-62
2022/03/19 07:04:31;;;;;;;17.77;9.40;;;;;;;-1.55;76.09;103508.11;1794769;79;21056;-62
2022/03/19 07:06:58;;;;;;;17.27;9.53;;;;;;;-1.53;76.09;103502.35;1791372;79;21104;-62
2022/03/19 07:09:25;;;;;;;16.13;9.03;;;;;;;-1.30;76.01;103505.23;1799100;79;21036;-62
2022/03/19 07:11:53;;;;;;;19.17;9.10;;;;;;;-1.38;74.88;103507.75;1798374;79;20985;-61
2022/03/19 07:14:22;;;;;;;20.73;10.60;;;;;;;-1.44;74.66;103499.44;1795416;79;21064;-62
2022/03/19 07:16:51;;;;;;;14.53;8.70;;;;;;;-1.50;74.51;103503.80;1792908;80;21085;-61
2022/03/19 07:19:18;;;;;;;18.77;8.63;;;;;;;-1.30;74.53;103497.66;1780412;79;21001;-61
2022/03/19 07:21:45;;;;;;;15.87;8.77;;;;;;;-0.96;74.21;103492.70;1811282;78;21023;-62
2022/03/19 07:24:13;;;;;;;15.87;9.10;;;;;;;-0.95;72.84;103496.09;1813872;78;21031;-61
2022/03/19 07:26:40;;;;;;;19.30;9.93;;;;;;;-0.91;72.25;103495.46;1785374;78;20977;-62
2022/03/19 07:29:08;;;;;;;16.47;8.70;;;;;;;-0.90;72.63;103497.22;1817975;78;21055;-62
2022/03/19 07:31:35;;;;;;;15.00;8.57;;;;;;;-0.73;71.48;103496.43;1820690;78;21519;-61
2022/03/19 07:34:02;;;;;;;14.35;8.65;;;;;;;-0.66;70.81;103490.01;1813041;78;21488;-61
2022/03/19 07:36:31;;;;;;;15.53;8.93;;;;;;;-0.62;70.59;103480.11;1815959;78;21052;-62
2022/03/19 07:38:58;;;;;;;17.10;9.10;;;;;;;-0.37;69.82;103479.20;1801862;78;21023;-61
2022/03/19 07:44:11;;;;;;;15.60;7.83;;;;;;;-0.53;68.02;103480.09;1800860;78;21041;-61
2022/03/19 07:46:41;;;;;;;16.32;7.80;;;;;;;-0.35;66.31;103483.53;1773686;81;21574;-62
2022/03/19 07:49:10;;;;;;;14.90;7.03;;;;;;;-0.37;65.51;103485.52;1774101;81;21043;-61
2022/03/19 07:51:38;;;;;;;14.05;6.55;;;;;;;-0.35;64.35;103484.80;1772689;79;21606;-61
2022/03/19 07:54:05;;;;;;;13.62;7.65;;;;;;;-0.22;63.44;103484.61;1773834;81;21085;-61
2022/03/19 07:56:33;;;;;;;13.28;7.58;;;;;;;-0.16;64.69;103485.68;1774077;79;21074;-61
2022/03/19 07:59:00;;;;;;;15.03;8.25;;;;;;;0.08;64.31;103483.08;1773846;80;21050;-61
2022/03/19 08:01:26;;;;;;;13.95;7.85;;;;;;;0.14;64.50;103479.95;1772824;80;21105;-61
2022/03/19 08:03:54;;;;;;;14.10;7.78;;;;;;;0.09;63.39;103481.41;1772915;80;21133;-61
2022/03/19 08:06:21;;;;;;;12.73;7.62;;;;;;;-0.06;63.47;103488.75;1772633;79;21046;-62
2022/03/19 08:08:48;;;;;;;14.28;7.85;;;;;;;0.03;63.60;103476.91;1772966;80;21042;-61
2022/03/19 08:11:17;;;;;;;12.55;7.20;;;;;;;0.11;62.78;103480.67;1772926;81;21120;-62
2022/03/19 08:13:45;;;;;;;14.28;7.65;;;;;;;0.21;62.62;103480.72;1804237;78;21056;-63
2022/03/19 08:16:12;;;;;;;17.70;8.58;;;;;;;0.15;62.80;103479.16;1799362;79;21515;-63
2022/03/19 08:18:40;;;;;;;14.13;7.92;;;;;;;0.29;63.65;103485.73;1808927;79;21488;-62
2022/03/19 08:21:08;;;;;;;14.63;7.72;;;;;;;0.28;64.15;103483.13;1797928;79;21030;-63
2022/03/19 08:23:36;;;;;;;13.75;8.18;;;;;;;0.63;63.68;103476.25;1803048;79;21056;-62
2022/03/19 08:26:03;;;;;;;13.50;7.33;;;;;;;0.69;63.08;103473.62;1761945;81;21082;-62
2022/03/19 08:28:30;;;;;;;14.23;7.20;;;;;;;0.65;62.15;103473.02;1762618;81;21646;-61
2022/03/19 08:30:58;;;;;;;13.05;7.55;;;;;;;0.64;61.81;103470.41;1762792;81;21535;-61
2022/03/19 08:33:27;;;;;;;12.70;7.30;;;;;;;0.60;62.04;103472.78;1762708;81;21043;-61
2022/03/19 08:35:54;;;;;;;13.95;7.80;;;;;;;0.91;61.78;103471.63;1748879;81;21074;-62
2022/03/19 08:41:08;;;;;;;12.47;7.03;;;;;;;0.80;60.42;103481.28;1776225;81;21068;-62
2022/03/19 08:43:36;;;;;;;13.43;7.03;;;;;;;0.70;59.86;103477.02;1785516;80;21066;-62
2022/03/19 08:46:04;;;;;;;12.58;6.45;;;;;;;0.79;60.22;103465.99;1796163;80;21024;-62
2022/03/19 08:48:33;;;;;;;11.65;6.22;;;;;;;1.10;60.17;103459.33;1795813;80;21570;-61
2022/03/19 08:51:39;;;;;;;14.75;6.75;;;;;;;1.09;59.53;103455.45;1795710;80;21016;-62
2022/03/19 08:53:30;;;;;;;17.52;7.58;;;;;;;1.13;59.20;103451.83;1737744;81;21073;-62
2022/03/19 08:55:58;;;;;;;11.83;6.40;;;;;;;1.22;59.38;103446.30;1796024;80;21090;-62
2022/03/19 08:58:25;;;;;;;12.93;6.92;;;;;;;1.00;58.55;103452.98;1741337;81;21051;-62
2022/03/19 09:00:57;;;;;;;11.68;6.10;;;;;;;1.09;57.82;103444.03;1795921;80;21074;-62
2022/03/19 09:03:22;;;;;;;10.75;6.22;;;;;;;1.21;57.29;103444.55;1741027;81;21050;-61
2022/03/19 09:05:49;;;;;;;11.55;5.92;;;;;;;1.40;56.74;103430.97;1795993;80;21128;-61
2022/03/19 09:08:18;;;;;;;10.55;5.83;;;;;;;1.53;55.44;103453.91;1741393;82;21229;-61
2022/03/19 09:10:46;;;;;;;11.22;6.00;;;;;;;1.38;55.38;103448.67;1796037;80;21070;-62
2022/03/19 09:13:15;;;;;;;14.18;6.08;;;;;;;1.42;55.07;103442.43;1795740;80;21114;-61
2022/03/19 09:15:42;;;;;;;13.60;6.60;;;;;;;1.48;54.85;103446.48;1776584;80;21084;-62
2022/03/19 09:18:10;;;;;;;12.15;5.92;;;;;;;1.58;54.83;103432.98;1736514;81;21097;-61
2022/03/19 09:20:38;;;;;;;13.00;6.25;;;;;;;1.77;54.24;103444.73;1773659;81;21060;-61
2022/03/19 09:23:07;;;;;;;9.53;5.78;;;;;;;1.71;53.11;103430.52;1762170;81;21082;-63
2022/03/19 09:25:35;;;;;;;15.23;5.85;;;;;;;1.84;52.55;103432.27;1773728;81;21104;-63
2022/03/19 09:28:03;;;;;;;12.20;5.90;;;;;;;2.02;52.85;103434.66;1762215;81;20999;-62
2022/03/19 09:30:30;;;;;;;12.63;5.80;;;;;;;2.24;52.65;103429.58;1773591;81;21068;-62
2022/03/19 09:32:57;;;;;;;10.95;5.78;;;;;;;2.26;51.56;103433.46;1762240;81;21091;-63
2022/03/19 09:35:25;;;;;;;13.75;6.12;;;;;;;2.33;51.71;103426.51;1761467;81;21032;-63
2022/03/19 09:37:52;;;;;;;10.55;6.22;;;;;;;2.23;50.59;103424.05;1786248;80;21546;-63
2022/03/19 09:40:20;;;;;;;13.68;5.62;;;;;;;2.23;51.17;103418.08;1761418;80;21075;-62
2022/03/19 09:42:49;;;;;;;10.95;6.20;;;;;;;2.18;50.66;103427.67;1786386;80;21030;-63
2022/03/19 09:45:21;;;;;;;14.75;6.53;;;;;;;2.40;50.60;103420.86;1786115;80;21571;-63
2022/03/19 09:47:51;;;;;;;11.85;6.30;;;;;;;2.48;50.01;103422.41;1785917;80;21145;-62
2022/03/19 09:50:20;;;;;;;12.78;6.78;;;;;;;2.51;48.66;103418.70;1786158;80;21062;-63
2022/03/19 09:52:54;;;;;;;12.65;6.50;;;;;;;2.52;48.81;103418.75;1786059;80;21063;-63
2022/03/19 09:55:26;;;;;;;10.43;6.80;;;;;;;2.72;48.75;103417.34;1786433;80;21304;-62
2022/03/19 09:57:55;;;;;;;13.40;6.87;;;;;;;2.72;48.12;103432.19;1786099;80;21086;-62
2022/03/19 10:00:24;;;;;;;12.73;7.47;;;;;;;2.57;47.24;103421.45;1786008;80;21460;-63
2022/03/19 10:02:57;;;;;;;15.68;7.10;;;;;;;2.71;47.87;103419.00;1785764;80;21179;-62
2022/03/19 10:12:37;;;;;;;11.57;6.10;;;;;;;2.93;46.88;103406.63;1748882;81;21102;-64
2022/03/19 10:15:10;;;;;;;12.13;6.10;;;;;;;2.90;47.04;103414.17;1756014;81;21550;-61
2022/03/19 10:17:40;;;;;;;13.98;5.70;;;;;;;3.04;46.53;103413.75;1785836;80;21570;-62
2022/03/19 10:20:13;;;;;;;11.85;5.45;;;;;;;3.15;46.40;103419.67;1785910;80;21000;-62
2022/03/19 10:22:43;;;;;;;10.23;5.85;;;;;;;3.38;46.19;103417.88;1761856;80;21054;-62
2022/03/19 10:25:12;;;;;;;12.10;5.78;;;;;;;3.09;45.67;103409.28;1786113;80;21003;-62
2022/03/19 10:27:43;;;;;;;8.75;4.67;;;;;;;3.19;45.57;103406.64;1785390;80;21031;-62
2022/03/19 10:30:19;;;;;;;9.60;5.28;;;;;;;3.31;44.58;103405.77;1786198;80;21050;-63
2022/03/19 10:32:52;;;;;;;13.28;5.03;;;;;;;3.57;45.10;103401.94;1786210;80;21519;-63
2022/03/19 10:35:31;;;;;;;8.48;5.05;;;;;;;3.69;43.90;103409.07;1776604;80;21021;-63
2022/03/19 10:38:05;;;;;;;10.63;5.22;;;;;;;3.65;43.49;103395.40;1759086;81;21030;-64
2022/03/19 10:40:43;;;;;;;13.70;5.22;;;;;;;3.60;43.77;103403.29;1788397;80;21016;-62
2022/03/19 10:43:12;;;;;;;9.78;4.75;;;;;;;3.64;43.99;103396.20;1788431;80;21516;-63
2022/03/19 10:45:49;;;;;;;8.00;4.53;;;;;;;3.79;43.22;103389.05;1761775;80;21092;-63
2022/03/19 10:48:28;;;;;;;9.13;5.12;;;;;;;3.75;42.40;103380.85;1748630;80;21592;-63
2022/03/19 10:50:57;;;;;;;9.83;5.47;;;;;;;3.88;42.01;103387.59;1788368;80;22277;-63
2022/03/19 10:53:26;;;;;;;8.75;5.30;;;;;;;3.68;42.43;103380.20;1788454;80;21025;-62
2022/03/19 10:55:54;;;;;;;11.75;5.40;;;;;;;3.79;42.27;103385.22;1761590;80;21461;-62
2022/03/19 10:58:22;;;;;;;9.70;5.80;;;;;;;3.88;42.00;103377.39;1788084;80;21568;-63
2022/03/19 11:00:53;;;;;;;9.75;5.20;;;;;;;3.88;42.00;103377.39;1788326;80;21006;-63
2022/03/19 11:03:27;;;;;;;8.10;5.35;;;;;;;3.80;41.22;103388.63;1788335;80;21493;-64
2022/03/19 11:14:24;;;;;;;10.80;4.75;;;;;;;4.18;40.99;103377.02;1695499;81;21045;-63
2022/03/19 11:17:33;;;;;;;8.28;4.70;;;;;;;4.37;41.23;103361.80;1765283;81;21578;-63
2022/03/19 11:20:01;;;;;;;9.73;4.62;;;;;;;4.35;40.12;103361.32;1776907;81;21032;-63
2022/03/19 11:22:42;;;;;;;7.47;4.92;;;;;;;4.38;40.21;103358.45;1765495;81;21015;-63
2022/03/19 11:25:31;;;;;;;6.72;3.87;;;;;;;4.56;40.01;103349.55;1777055;81;21001;-62
2022/03/19 11:28:04;;;;;;;8.80;4.53;;;;;;;4.58;39.08;103350.45;1765575;81;21026;-63
2022/03/19 11:30:40;;;;;;;9.25;4.85;;;;;;;4.58;39.08;103350.45;1777459;81;21055;-62
2022/03/19 11:33:15;;;;;;;7.60;4.28;;;;;;;4.57;38.83;103340.67;1765645;81;21482;-61
2022/03/19 11:35:56;;;;;;;8.20;4.42;;;;;;;4.49;39.59;103340.88;1777192;81;21099;-63
2022/03/19 11:38:25;;;;;;;9.18;4.67;;;;;;;4.72;39.60;103341.89;1736927;81;21561;-62
2022/03/19 11:40:55;;;;;;;8.90;5.03;;;;;;;4.78;39.33;103336.52;1777130;81;21067;-62
2022/03/19 11:43:36;;;;;;;9.68;5.05;;;;;;;4.72;38.94;103332.54;1765610;81;21010;-61
2022/03/19 11:46:11;;;;;;;8.80;4.50;;;;;;;4.72;39.48;103341.89;1777205;81;21024;-62
2022/03/19 11:48:50;;;;;;;9.68;4.35;;;;;;;4.58;39.41;103336.03;1765926;80;21553;-62
2022/03/19 11:51:31;;;;;;;8.53;4.10;;;;;;;4.75;39.24;103313.92;1777268;81;21416;-62
2022/03/19 11:54:16;;;;;;;8.50;4.55;;;;;;;4.93;38.04;103316.06;1766224;80;21038;-62
2022/03/19 11:56:51;;;;;;;7.72;4.45;;;;;;;4.96;37.60;103319.53;1752567;81;21094;-62